Time;durP1;ratioP1;P1;durP2;ratioP2;P2;SDS_P1;SDS_P2;PMS_P1;PMS_P2;Temp;Humidity;BMP_temperature;BMP_pressure;BME280_temperature;BME280_humidity;BME280_pressure;Samples;Min_cycle;Max_cycle;Signal;HPM_P1;HPM_P2
2021/12/15 00:01:35;;;;;;;70.07;38.42;;;10.10;99.90;;;;;;5101569;27;20154;-63
2021/12/15 00:04:01;;;;;;;72.78;37.50;;;10.10;99.90;;;;;;5098713;28;20117;-63
2021/12/15 00:06:27;;;;;;;72.82;38.55;;;10.10;99.90;;;;;;5097518;28;20729;-63
2021/12/15 00:08:56;;;;;;;63.22;36.50;;;10.30;99.90;;;;;;5101411;27;20032;-63
2021/12/15 00:11:35;;;;;;;76.32;38.92;;;10.20;99.90;;;;;;5098178;27;20063;-63
2021/12/15 00:14:05;;;;;;;69.03;37.03;;;10.10;99.90;;;;;;5097776;27;20042;-63
2021/12/15 00:16:31;;;;;;;68.85;35.72;;;10.10;99.90;;;;;;5099980;27;20080;-63
2021/12/15 00:18:57;;;;;;;67.18;37.03;;;10.10;99.90;;;;;;5094922;28;20498;-63
2021/12/15 00:21:23;;;;;;;69.40;37.50;;;10.20;99.90;;;;;;5102213;28;20032;-64
2021/12/15 00:23:49;;;;;;;61.30;35.90;;;10.20;99.90;;;;;;5098633;27;20111;-64
2021/12/15 00:26:16;;;;;;;70.55;37.60;;;10.10;99.90;;;;;;5097067;27;20040;-63
2021/12/15 00:28:43;;;;;;;68.78;36.45;;;10.20;99.90;;;;;;5099101;27;20031;-63
2021/12/15 00:31:10;;;;;;;64.72;35.67;;;10.20;99.90;;;;;;5097956;27;20044;-63
2021/12/15 00:33:37;;;;;;;61.10;35.97;;;10.20;99.90;;;;;;5100607;27;20394;-64
2021/12/15 00:36:04;;;;;;;75.43;36.80;;;10.20;99.90;;;;;;5099450;27;20051;-63
2021/12/15 00:38:30;;;;;;;69.03;35.95;;;10.20;99.90;;;;;;5098658;27;20051;-63
2021/12/15 00:40:56;;;;;;;63.70;35.63;;;10.20;99.90;;;;;;5097716;28;20035;-63
2021/12/15 00:43:21;;;;;;;65.28;35.92;;;10.20;99.90;;;;;;5097756;28;20036;-63
2021/12/15 00:45:48;;;;;;;66.40;35.97;;;10.20;99.90;;;;;;5101160;27;20493;-64
2021/12/15 00:48:14;;;;;;;63.85;36.30;;;10.20;99.90;;;;;;5097184;28;20031;-64
2021/12/15 00:50:42;;;;;;;66.05;35.70;;;10.20;99.90;;;;;;5098063;28;20035;-63
2021/12/15 00:53:08;;;;;;;67.20;36.92;;;10.20;99.90;;;;;;5097561;27;20500;-64
2021/12/15 00:55:34;;;;;;;66.32;36.85;;;10.20;99.90;;;;;;5097305;27;20040;-63
2021/12/15 00:58:01;;;;;;;69.75;36.97;;;10.20;99.90;;;;;;5097723;27;20043;-63
2021/12/15 01:00:34;;;;;;;57.95;34.38;;;10.20;99.90;;;;;;5099774;27;20642;-63
2021/12/15 01:03:00;;;;;;;72.43;37.15;;;10.20;99.90;;;;;;5099414;27;20481;-63
2021/12/15 01:05:31;;;;;;;70.97;38.08;;;10.20;99.90;;;;;;5099500;27;20060;-64
2021/12/15 01:08:00;;;;;;;64.07;36.38;;;10.20;99.90;;;;;;5098803;27;20085;-64
2021/12/15 01:10:38;;;;;;;68.45;37.38;;;10.20;99.90;;;;;;5101013;27;20036;-63
2021/12/15 01:21:01;;;;;;;64.05;36.08;;;10.30;99.90;;;;;;5127008;27;20046;-63
2021/12/15 01:23:29;;;;;;;72.85;37.38;;;10.20;99.90;;;;;;5099917;27;20475;-63
2021/12/15 01:26:01;;;;;;;70.07;37.38;;;10.20;99.90;;;;;;5098938;27;20051;-63
2021/12/15 01:28:28;;;;;;;74.85;36.67;;;10.30;99.90;;;;;;5098584;28;20281;-63
2021/12/15 01:30:55;;;;;;;64.20;35.30;;;10.30;99.90;;;;;;5127338;27;20031;-63
2021/12/15 01:33:23;;;;;;;67.95;37.55;;;10.20;99.90;;;;;;5096643;27;20039;-64
2021/12/15 01:35:50;;;;;;;67.78;36.97;;;10.30;99.90;;;;;;5128440;27;20059;-63
2021/12/15 01:38:19;;;;;;;59.47;36.38;;;10.30;99.90;;;;;;5098649;27;20061;-63
2021/12/15 01:40:46;;;;;;;67.50;37.40;;;10.30;99.90;;;;;;5098167;27;20574;-63
2021/12/15 01:43:18;;;;;;;62.65;36.47;;;10.30;99.90;;;;;;5097915;27;20065;-63
2021/12/15 01:48:34;;;;;;;75.20;37.17;;;10.30;99.90;;;;;;5096906;27;20402;-63
2021/12/15 01:51:00;;;;;;;72.50;37.65;;;10.30;99.90;;;;;;5099958;28;20035;-64
2021/12/15 01:53:26;;;;;;;67.88;36.80;;;10.30;99.90;;;;;;5093944;27;20046;-63
2021/12/15 01:55:53;;;;;;;72.20;37.70;;;10.30;99.90;;;;;;5096852;27;20043;-63
2021/12/15 01:58:18;;;;;;;70.38;37.25;;;10.30;99.90;;;;;;5095768;27;20055;-63
2021/12/15 02:00:50;;;;;;;73.20;37.20;;;10.30;99.90;;;;;;5126699;27;20048;-63
2021/12/15 02:03:16;;;;;;;70.57;38.13;;;10.30;99.90;;;;;;5093989;28;20171;-63
2021/12/15 02:05:42;;;;;;;79.72;39.65;;;10.30;99.90;;;;;;5097743;27;20622;-63
2021/12/15 02:08:09;;;;;;;71.35;39.30;;;10.30;99.90;;;;;;5126443;27;20467;-63
2021/12/15 02:10:38;;;;;;;71.38;39.38;;;10.30;99.90;;;;;;5095700;27;20035;-63
2021/12/15 02:13:07;;;;;;;75.18;40.33;;;10.30;99.90;;;;;;5126589;27;20426;-63
2021/12/15 02:15:36;;;;;;;80.22;40.45;;;10.30;99.90;;;;;;5098966;27;20043;-63
2021/12/15 02:18:05;;;;;;;77.13;38.83;;;10.30;99.90;;;;;;5096506;27;20047;-63
2021/12/15 02:20:46;;;;;;;76.05;38.50;;;10.30;99.90;;;;;;5097322;27;20063;-63
2021/12/15 02:23:15;;;;;;;78.47;38.08;;;10.40;99.90;;;;;;5127930;27;20134;-63
2021/12/15 02:25:41;;;;;;;73.85;37.65;;;10.30;99.90;;;;;;5098308;28;20047;-63
2021/12/15 02:28:08;;;;;;;70.28;37.00;;;10.30;99.90;;;;;;5083719;28;20133;-63
2021/12/15 02:38:18;;;;;;;72.75;37.15;;;10.30;99.90;;;;;;5096259;28;20039;-64
2021/12/15 02:40:45;;;;;;;75.68;37.40;;;10.30;99.90;;;;;;5097885;28;20036;-63
2021/12/15 02:43:12;;;;;;;73.95;38.42;;;10.30;99.90;;;;;;5099714;27;20125;-63
2021/12/15 02:45:38;;;;;;;73.15;36.90;;;10.30;99.90;;;;;;5093256;28;20127;-63
2021/12/15 02:48:04;;;;;;;78.80;38.58;;;10.30;99.90;;;;;;5097558;28;20118;-64
2021/12/15 02:50:31;;;;;;;76.20;38.05;;;10.30;99.90;;;;;;5082337;28;20108;-63
2021/12/15 02:52:58;;;;;;;79.57;38.45;;;10.30;99.90;;;;;;5096256;28;20036;-64
2021/12/15 02:55:24;;;;;;;77.07;38.05;;;10.30;99.90;;;;;;5095142;28;20470;-63
2021/12/15 02:57:51;;;;;;;79.18;37.35;;;10.30;99.90;;;;;;5093618;28;20028;-63
2021/12/15 03:00:45;;;;;;;77.15;38.67;;;10.20;99.90;;;;;;5094771;28;20040;-63
2021/12/15 03:05:45;;;;;;;83.05;38.08;;;10.30;99.90;;;;;;5097359;28;20111;-63
2021/12/15 03:08:22;;;;;;;88.47;41.33;;;10.30;99.90;;;;;;5126350;27;20599;-64
2021/12/15 03:16:23;;;;;;;93.68;40.30;;;10.30;99.90;;;;;;5126701;27;20447;-63
2021/12/15 03:18:48;;;;;;;89.88;41.17;;;10.20;99.90;;;;;;5094094;28;20048;-63
2021/12/15 03:21:23;;;;;;;90.95;41.88;;;10.20;99.90;;;;;;5095015;28;20154;-63
2021/12/15 03:23:55;;;;;;;90.05;41.92;;;10.20;99.90;;;;;;5093313;28;20047;-63
2021/12/15 03:26:26;;;;;;;87.20;40.17;;;10.30;99.90;;;;;;5092127;28;20130;-64
2021/12/15 03:37:22;;;;;;;89.57;41.17;;;10.20;99.90;;;;;;5129494;27;20055;-64
2021/12/15 03:39:52;;;;;;;82.38;41.05;;;10.20;99.90;;;;;;5098132;28;20046;-63
2021/12/15 03:42:23;;;;;;;86.25;43.10;;;10.20;99.90;;;;;;5129930;27;20079;-63
2021/12/15 03:44:49;;;;;;;83.35;42.53;;;10.20;99.90;;;;;;5129545;27;20051;-63
2021/12/15 03:47:26;;;;;;;81.93;42.72;;;10.20;99.90;;;;;;5097529;28;20029;-64
2021/12/15 03:49:55;;;;;;;80.07;41.22;;;10.20;99.90;;;;;;5097417;28;20062;-63
2021/12/15 03:52:21;;;;;;;87.40;42.47;;;10.20;99.90;;;;;;5097679;28;20093;-63
2021/12/15 03:54:47;;;;;;;81.85;42.33;;;10.20;99.90;;;;;;5096552;28;20028;-63
2021/12/15 03:57:13;;;;;;;81.60;42.55;;;10.20;99.90;;;;;;5096610;28;20043;-63
2021/12/15 03:59:44;;;;;;;84.72;43.63;;;10.20;99.90;;;;;;5101353;27;20439;-64
2021/12/15 04:02:16;;;;;;;77.45;42.30;;;10.20;99.90;;;;;;5098880;28;20075;-64
2021/12/15 04:04:42;;;;;;;78.93;43.38;;;10.20;99.90;;;;;;5133034;27;20044;-64
2021/12/15 04:07:09;;;;;;;77.13;40.97;;;10.20;99.90;;;;;;5132475;27;20046;-64
2021/12/15 04:09:35;;;;;;;75.65;42.78;;;10.20;99.90;;;;;;5130349;27;20085;-63
2021/12/15 04:12:01;;;;;;;79.75;41.75;;;10.20;99.90;;;;;;5101060;27;20031;-64
2021/12/15 04:14:34;;;;;;;78.90;43.13;;;10.20;99.90;;;;;;5103259;27;20058;-64
2021/12/15 04:17:07;;;;;;;81.97;44.35;;;10.20;99.90;;;;;;5134726;27;20044;-64
2021/12/15 04:19:35;;;;;;;79.18;43.47;;;10.20;99.90;;;;;;5097651;28;20047;-64
2021/12/15 04:22:02;;;;;;;80.13;44.83;;;10.20;99.90;;;;;;5101229;28;20036;-64
2021/12/15 04:24:28;;;;;;;75.13;43.35;;;10.20;99.90;;;;;;5102425;27;20055;-64
2021/12/15 04:26:57;;;;;;;80.70;45.33;;;10.20;99.90;;;;;;5100200;27;20072;-64
2021/12/15 04:29:22;;;;;;;79.57;43.67;;;10.20;99.90;;;;;;5099879;28;20042;-63
2021/12/15 04:32:01;;;;;;;77.63;45.00;;;10.10;99.90;;;;;;5102513;27;20474;-64
2021/12/15 04:34:26;;;;;;;78.60;42.80;;;10.20;99.90;;;;;;5102411;27;20404;-64
2021/12/15 04:36:53;;;;;;;74.72;44.22;;;10.20;99.90;;;;;;5097849;27;20046;-63
2021/12/15 04:39:23;;;;;;;74.05;43.35;;;10.20;99.90;;;;;;5100275;27;20058;-64
2021/12/15 04:41:51;;;;;;;88.00;47.35;;;10.20;99.90;;;;;;5098618;28;20043;-63
2021/12/15 04:44:21;;;;;;;86.95;46.17;;;10.20;99.90;;;;;;5100064;27;20110;-64
2021/12/15 04:47:04;;;;;;;80.18;45.67;;;10.20;99.90;;;;;;5100826;28;20042;-63
2021/12/15 04:49:35;;;;;;;82.72;46.65;;;10.20;99.90;;;;;;5099643;27;20043;-63
2021/12/15 04:52:03;;;;;;;74.65;45.53;;;10.20;99.90;;;;;;5100407;27;20714;-63
2021/12/15 04:54:30;;;;;;;73.60;44.05;;;10.20;99.90;;;;;;5132278;27;20515;-64
2021/12/15 04:56:56;;;;;;;79.07;45.03;;;10.20;99.90;;;;;;5097705;27;20517;-63
2021/12/15 04:59:22;;;;;;;79.95;48.15;;;10.10;99.90;;;;;;5100557;28;20047;-63
2021/12/15 05:01:48;;;;;;;82.32;47.45;;;10.20;99.90;;;;;;5133313;27;20047;-64
2021/12/15 05:04:14;;;;;;;82.88;45.75;;;10.20;99.90;;;;;;5097893;27;20050;-64
2021/12/15 05:06:40;;;;;;;83.28;46.80;;;10.10;99.90;;;;;;5098867;27;20053;-63
2021/12/15 05:09:07;;;;;;;85.72;47.83;;;10.10;99.90;;;;;;5099112;27;20035;-64
2021/12/15 05:11:33;;;;;;;86.10;49.25;;;10.10;99.90;;;;;;5098712;28;20122;-63
2021/12/15 05:14:00;;;;;;;88.57;49.55;;;10.10;99.90;;;;;;5101518;27;20138;-63
2021/12/15 05:16:25;;;;;;;86.32;48.38;;;10.10;99.90;;;;;;5105645;27;20085;-63
2021/12/15 05:18:51;;;;;;;85.68;48.25;;;10.10;99.90;;;;;;5112245;27;20135;-63
2021/12/15 05:21:18;;;;;;;88.13;49.75;;;10.10;99.90;;;;;;5105031;28;20334;-64
2021/12/15 05:23:47;;;;;;;78.50;48.40;;;10.10;99.90;;;;;;5103000;28;20043;-64
2021/12/15 05:26:13;;;;;;;84.78;49.78;;;10.10;99.90;;;;;;5102987;27;20205;-64
2021/12/15 05:28:39;;;;;;;88.28;50.03;;;10.10;99.90;;;;;;5102047;28;20119;-64
2021/12/15 05:31:05;;;;;;;84.13;49.50;;;10.20;99.90;;;;;;5100064;28;20028;-64
2021/12/15 05:33:30;;;;;;;81.47;48.67;;;10.10;99.90;;;;;;5100269;28;20401;-63
2021/12/15 05:35:56;;;;;;;88.72;50.75;;;10.10;99.90;;;;;;5100957;28;20036;-64
2021/12/15 05:38:23;;;;;;;83.35;47.55;;;10.10;99.90;;;;;;5131565;27;20049;-63
2021/12/15 05:40:50;;;;;;;85.95;49.20;;;10.10;99.90;;;;;;5100857;28;20076;-64
2021/12/15 05:43:28;;;;;;;83.93;49.88;;;10.10;99.90;;;;;;5105702;27;20079;-63
2021/12/15 05:45:54;;;;;;;86.28;49.42;;;10.10;99.90;;;;;;5104228;28;20046;-64
2021/12/15 05:48:20;;;;;;;86.07;49.40;;;10.10;99.90;;;;;;5133004;27;20567;-64
2021/12/15 05:50:48;;;;;;;82.82;49.03;;;10.10;99.90;;;;;;5099881;28;20036;-63
2021/12/15 05:53:15;;;;;;;80.25;46.35;;;10.10;99.90;;;;;;5096345;28;20040;-63
2021/12/15 05:55:42;;;;;;;84.72;50.10;;;10.10;99.90;;;;;;5099029;28;20036;-64
2021/12/15 05:58:08;;;;;;;80.78;48.47;;;10.10;99.90;;;;;;5100791;27;20071;-63
2021/12/15 06:00:37;;;;;;;83.43;47.90;;;10.10;99.90;;;;;;5095295;28;20046;-63
2021/12/15 06:03:04;;;;;;;81.80;49.00;;;10.10;99.90;;;;;;5097868;28;20035;-64
2021/12/15 06:05:30;;;;;;;77.15;48.20;;;10.20;99.90;;;;;;5134742;27;20381;-64
2021/12/15 06:07:56;;;;;;;79.50;50.35;;;10.10;99.90;;;;;;5102295;28;20035;-64
2021/12/15 06:10:25;;;;;;;81.80;48.33;;;10.10;99.90;;;;;;5102473;27;20039;-64
2021/12/15 06:12:52;;;;;;;82.05;49.25;;;10.10;99.90;;;;;;5103984;28;20046;-64
2021/12/15 06:15:22;;;;;;;86.72;49.35;;;10.10;99.90;;;;;;5103070;28;20065;-63
2021/12/15 06:18:10;;;;;;;84.55;49.60;;;10.10;99.90;;;;;;5102041;28;20078;-65
2021/12/15 06:20:36;;;;;;;86.78;48.28;;;10.10;99.90;;;;;;5129910;27;20044;-64
2021/12/15 06:23:09;;;;;;;80.03;48.33;;;10.10;99.90;;;;;;5094922;28;20681;-64
2021/12/15 06:25:35;;;;;;;80.20;49.42;;;10.10;99.90;;;;;;5095727;28;20040;-63
2021/12/15 06:28:00;;;;;;;83.50;48.85;;;10.10;99.90;;;;;;5080518;28;20048;-64
2021/12/15 06:30:26;;;;;;;73.97;46.08;;;10.10;99.90;;;;;;5094679;28;21542;-64
2021/12/15 06:32:52;;;;;;;75.07;45.67;;;10.10;99.90;;;;;;5097625;28;20271;-64
2021/12/15 06:35:18;;;;;;;77.40;46.75;;;10.10;99.90;;;;;;5100221;27;21079;-64
2021/12/15 06:37:43;;;;;;;74.05;45.75;;;10.10;99.90;;;;;;5097276;28;20859;-64
2021/12/15 06:40:10;;;;;;;85.13;48.83;;;10.10;99.90;;;;;;5094160;28;20070;-63
2021/12/15 06:42:37;;;;;;;76.85;46.10;;;10.10;99.90;;;;;;5100276;28;20051;-64
2021/12/15 06:45:04;;;;;;;79.10;47.45;;;10.10;99.90;;;;;;5109085;27;20039;-64
2021/12/15 06:58:23;;;;;;;76.38;47.17;;;10.10;99.90;;;;;;5096566;28;20059;-64
2021/12/15 07:00:53;;;;;;;69.88;45.28;;;10.10;99.90;;;;;;5101002;28;20108;-64
2021/12/15 07:03:20;;;;;;;76.88;45.17;;;10.10;99.90;;;;;;5097420;28;20040;-64
2021/12/15 07:05:46;;;;;;;70.13;43.95;;;10.10;99.90;;;;;;5094426;28;20071;-64
2021/12/15 07:08:13;;;;;;;72.97;44.28;;;10.10;99.90;;;;;;5094859;28;20039;-64
2021/12/15 07:10:43;;;;;;;77.28;43.78;;;10.10;99.90;;;;;;5099107;28;20119;-64
2021/12/15 07:13:09;;;;;;;76.65;43.13;;;10.10;99.90;;;;;;5098137;28;20047;-64
2021/12/15 07:15:37;;;;;;;66.65;41.30;;;10.10;99.90;;;;;;5094566;28;20099;-64
2021/12/15 07:18:06;;;;;;;67.03;41.53;;;10.10;99.90;;;;;;5093904;28;20493;-64
2021/12/15 07:20:42;;;;;;;66.35;40.78;;;10.20;99.90;;;;;;5093075;28;20040;-64
2021/12/15 07:23:18;;;;;;;67.70;40.40;;;10.10;99.90;;;;;;5094169;28;20071;-64
2021/12/15 07:25:46;;;;;;;68.32;42.80;;;10.20;99.90;;;;;;5098269;28;20059;-64
2021/12/15 07:28:12;;;;;;;68.18;40.67;;;10.10;99.90;;;;;;5094577;28;21344;-64
2021/12/15 07:30:38;;;;;;;74.43;41.78;;;10.20;99.90;;;;;;5095085;28;20055;-64
2021/12/15 07:33:07;;;;;;;64.93;40.10;;;10.20;99.90;;;;;;5095212;28;20036;-64
2021/12/15 07:35:33;;;;;;;70.55;42.58;;;10.20;99.90;;;;;;5097580;28;20036;-63
2021/12/15 07:37:59;;;;;;;70.20;38.60;;;10.20;99.90;;;;;;5101197;28;20148;-64
2021/12/15 07:40:26;;;;;;;64.57;39.33;;;10.20;99.90;;;;;;5100290;28;20028;-64
2021/12/15 07:43:04;;;;;;;62.40;39.05;;;10.10;99.90;;;;;;5093871;28;20036;-64
2021/12/15 07:45:32;;;;;;;68.80;39.53;;;10.20;99.90;;;;;;5096174;28;20051;-64
2021/12/15 07:48:00;;;;;;;62.78;37.97;;;10.20;99.90;;;;;;5096628;27;20032;-64
2021/12/15 07:50:28;;;;;;;60.45;36.17;;;10.20;99.90;;;;;;5098074;28;20054;-64
2021/12/15 07:52:54;;;;;;;62.05;37.15;;;10.20;99.90;;;;;;5097687;28;20043;-64
2021/12/15 07:55:21;;;;;;;56.45;35.47;;;10.20;99.90;;;;;;5096701;27;20066;-64
2021/12/15 07:57:50;;;;;;;64.03;37.22;;;10.20;99.90;;;;;;5113255;27;20044;-63
2021/12/15 08:00:16;;;;;;;62.20;38.72;;;10.20;99.90;;;;;;5096093;27;20507;-64
2021/12/15 08:02:42;;;;;;;62.13;38.90;;;10.20;99.90;;;;;;5098153;27;20119;-63
2021/12/15 08:05:09;;;;;;;65.57;37.50;;;10.20;99.90;;;;;;5094987;27;20044;-63
2021/12/15 08:07:35;;;;;;;59.97;37.80;;;10.20;99.90;;;;;;5098393;28;20039;-63
2021/12/15 08:10:03;;;;;;;60.85;36.50;;;10.20;99.90;;;;;;5097349;27;20058;-63
2021/12/15 08:12:29;;;;;;;58.30;38.15;;;10.20;99.90;;;;;;5096896;28;20063;-63
2021/12/15 08:14:55;;;;;;;63.05;37.45;;;10.20;99.90;;;;;;5095687;27;20078;-63
2021/12/15 08:17:21;;;;;;;65.15;38.22;;;10.20;99.90;;;;;;5094167;28;20155;-64
2021/12/15 08:19:47;;;;;;;63.72;37.58;;;10.20;99.90;;;;;;5095062;28;20126;-63
2021/12/15 08:22:13;;;;;;;62.35;37.35;;;10.20;99.90;;;;;;5095770;28;20039;-64
2021/12/15 08:24:39;;;;;;;60.97;35.65;;;10.20;99.90;;;;;;5097555;28;20118;-63
2021/12/15 08:27:05;;;;;;;62.22;38.05;;;10.20;99.90;;;;;;5129962;27;20039;-63
2021/12/15 08:29:30;;;;;;;58.67;36.25;;;10.20;99.90;;;;;;5097316;28;20035;-63
2021/12/15 08:31:56;;;;;;;59.95;37.13;;;10.20;99.90;;;;;;5127740;27;20120;-63
2021/12/15 08:34:22;;;;;;;57.50;35.10;;;10.20;99.90;;;;;;5097180;28;20036;-63
2021/12/15 08:36:50;;;;;;;58.40;36.65;;;10.20;99.90;;;;;;5099994;28;20563;-63
2021/12/15 08:39:17;;;;;;;60.85;37.38;;;10.20;99.90;;;;;;5093198;28;20043;-63
2021/12/15 08:41:43;;;;;;;57.72;36.50;;;10.20;99.90;;;;;;5095964;28;20032;-63
2021/12/15 08:44:10;;;;;;;60.53;38.35;;;10.20;99.90;;;;;;5094219;28;20087;-63
2021/12/15 08:46:40;;;;;;;58.80;36.15;;;10.20;99.90;;;;;;5095656;28;20039;-63
2021/12/15 08:49:09;;;;;;;62.70;37.67;;;10.20;99.90;;;;;;5129001;27;20047;-63
2021/12/15 08:51:36;;;;;;;62.28;36.80;;;10.20;99.90;;;;;;5099038;28;20027;-63
2021/12/15 08:54:11;;;;;;;55.95;35.35;;;10.30;99.90;;;;;;5097043;28;20485;-63
2021/12/15 08:56:37;;;;;;;56.30;35.50;;;10.30;99.90;;;;;;5128682;27;20521;-63
2021/12/15 08:59:04;;;;;;;58.63;36.17;;;10.30;99.90;;;;;;5129180;27;20048;-63
2021/12/15 09:01:31;;;;;;;56.28;36.88;;;10.30;99.90;;;;;;5094394;27;20669;-64
2021/12/15 09:03:57;;;;;;;60.35;36.00;;;10.20;99.90;;;;;;5093514;27;20047;-64
2021/12/15 09:06:23;;;;;;;56.53;37.80;;;10.20;99.90;;;;;;5096458;28;20488;-63
2021/12/15 09:08:49;;;;;;;57.00;35.67;;;10.30;99.90;;;;;;5095956;28;20486;-64
2021/12/15 09:11:24;;;;;;;60.53;34.20;;;10.30;99.90;;;;;;5096742;28;20043;-63
2021/12/15 09:13:52;;;;;;;55.40;35.30;;;10.30;99.90;;;;;;5094392;28;20051;-64
2021/12/15 09:16:19;;;;;;;51.92;34.90;;;10.30;99.90;;;;;;5129847;27;20321;-64
2021/12/15 09:18:47;;;;;;;53.10;34.88;;;10.30;99.90;;;;;;5130068;27;20390;-63
2021/12/15 09:21:16;;;;;;;54.83;33.72;;;10.30;99.90;;;;;;5095979;28;20420;-63
2021/12/15 09:23:43;;;;;;;51.53;34.22;;;10.40;99.90;;;;;;5127859;27;20053;-64
2021/12/15 09:26:09;;;;;;;59.20;34.97;;;10.30;99.90;;;;;;5097216;28;20052;-64
2021/12/15 09:28:35;;;;;;;51.40;32.55;;;10.30;99.90;;;;;;5098103;28;20035;-64
2021/12/15 09:31:03;;;;;;;56.20;34.15;;;10.40;99.90;;;;;;5104809;28;20031;-63
2021/12/15 09:33:32;;;;;;;53.88;31.95;;;10.40;99.90;;;;;;5096550;27;20048;-63
2021/12/15 09:35:58;;;;;;;53.65;32.40;;;10.40;99.90;;;;;;5093796;28;20429;-64
2021/12/15 09:38:24;;;;;;;53.20;31.63;;;10.40;99.90;;;;;;5095786;28;20031;-64
2021/12/15 09:40:55;;;;;;;53.92;32.08;;;10.50;99.90;;;;;;5095505;28;20059;-64
2021/12/15 09:43:21;;;;;;;53.65;32.30;;;10.50;99.90;;;;;;5127960;27;20070;-64
2021/12/15 09:56:49;;;;;;;50.97;30.45;;;10.60;99.90;;;;;;5127773;27;20051;-63
2021/12/15 10:02:26;;;;;;;48.78;30.33;;;10.50;99.90;;;;;;5098069;28;20051;-63
2021/12/15 10:05:07;;;;;;;49.45;30.23;;;10.60;99.90;;;;;;5093402;28;20074;-64
2021/12/15 10:19:55;;;;;;;41.08;26.88;;;10.70;99.90;;;;;;5061454;28;20411;-63
2021/12/15 10:25:10;;;;;;;38.60;25.88;;;10.70;99.90;;;;;;5073005;28;20055;-64
2021/12/15 10:27:50;;;;;;;39.38;27.27;;;10.70;99.90;;;;;;5093465;28;20138;-64
2021/12/15 10:30:26;;;;;;;38.10;24.95;;;10.70;99.90;;;;;;5093236;28;20047;-64
2021/12/15 10:33:06;;;;;;;37.75;24.90;;;10.70;99.90;;;;;;5094320;28;20043;-64
2021/12/15 10:35:38;;;;;;;40.70;26.25;;;10.70;99.90;;;;;;5091485;28;20498;-64
2021/12/15 10:38:32;;;;;;;38.53;25.83;;;10.80;99.90;;;;;;5125923;27;20048;-64
2021/12/15 10:41:26;;;;;;;38.70;26.52;;;10.80;99.90;;;;;;5095799;28;20135;-64
2021/12/15 10:43:55;;;;;;;40.85;24.00;;;10.80;99.90;;;;;;5093375;28;20031;-64
2021/12/15 10:46:31;;;;;;;34.95;24.17;;;10.80;99.90;;;;;;5096459;28;20085;-64
2021/12/15 10:49:02;;;;;;;30.65;22.60;;;10.80;99.90;;;;;;5095137;28;20064;-63
2021/12/15 10:51:33;;;;;;;35.55;22.85;;;10.90;99.90;;;;;;5094431;28;20098;-64
2021/12/15 10:54:04;;;;;;;29.73;20.58;;;11.00;99.90;;;;;;5097320;28;20587;-64
2021/12/15 10:56:37;;;;;;;30.65;20.17;;;11.10;99.90;;;;;;5095162;28;20043;-64
2021/12/15 10:59:09;;;;;;;27.88;19.65;;;11.10;99.90;;;;;;5093150;28;20050;-64
2021/12/15 11:01:38;;;;;;;31.08;19.73;;;11.10;99.90;;;;;;5094509;28;20040;-64
2021/12/15 11:04:27;;;;;;;27.73;19.40;;;11.10;99.90;;;;;;5095784;28;20039;-64
2021/12/15 11:07:07;;;;;;;27.58;17.92;;;11.10;99.90;;;;;;5092915;27;20059;-64
2021/12/15 11:09:55;;;;;;;24.67;16.92;;;11.10;99.90;;;;;;5099226;28;20024;-64
2021/12/15 11:12:32;;;;;;;24.70;17.83;;;11.10;99.90;;;;;;5098742;28;20070;-63
2021/12/15 11:15:14;;;;;;;24.30;16.77;;;11.10;99.90;;;;;;5097385;28;20394;-64
2021/12/15 11:17:50;;;;;;;22.35;16.38;;;11.10;99.90;;;;;;5094574;28;20150;-64
2021/12/15 11:20:26;;;;;;;28.02;16.40;;;11.10;99.90;;;;;;5133837;27;21822;-64
2021/12/15 11:22:57;;;;;;;23.52;15.57;;;11.10;99.90;;;;;;5097154;28;20040;-64
2021/12/15 11:25:41;;;;;;;21.38;15.20;;;11.10;99.90;;;;;;5131189;27;20047;-64
2021/12/15 11:28:12;;;;;;;24.13;16.55;;;11.10;99.90;;;;;;5101401;28;20047;-63
2021/12/15 11:30:41;;;;;;;27.88;16.30;;;11.10;99.90;;;;;;5098265;28;20040;-63
2021/12/15 11:33:14;;;;;;;29.85;17.02;;;11.10;99.90;;;;;;5096584;28;20042;-64
2021/12/15 11:35:48;;;;;;;27.85;16.65;;;11.10;99.90;;;;;;5095409;28;20044;-64
2021/12/15 11:38:25;;;;;;;21.20;13.40;;;11.10;99.90;;;;;;5095935;28;20052;-64
2021/12/15 11:41:17;;;;;;;21.98;14.40;;;11.10;99.90;;;;;;5095485;28;20070;-64
2021/12/15 11:43:50;;;;;;;22.55;15.30;;;11.10;99.90;;;;;;5091650;27;20148;-64
2021/12/15 11:46:30;;;;;;;23.52;15.20;;;11.20;99.90;;;;;;5095873;28;20055;-64
2021/12/15 11:49:05;;;;;;;23.95;15.57;;;11.10;99.90;;;;;;5095508;28;20035;-64
2021/12/15 11:51:42;;;;;;;25.07;16.67;;;11.10;99.90;;;;;;5097625;28;20032;-64
2021/12/15 11:54:18;;;;;;;26.20;17.58;;;11.10;99.90;;;;;;5131534;27;20304;-64
2021/12/15 11:56:46;;;;;;;25.00;16.90;;;11.00;99.90;;;;;;5098887;28;20047;-64
2021/12/15 11:59:30;;;;;;;28.25;18.23;;;11.00;99.90;;;;;;5095511;28;20036;-64
2021/12/15 12:02:02;;;;;;;25.50;16.98;;;11.00;99.90;;;;;;5096684;28;20401;-64
2021/12/15 12:04:40;;;;;;;25.33;15.90;;;11.00;99.90;;;;;;5097183;28;20043;-64
2021/12/15 12:07:35;;;;;;;25.88;16.33;;;11.00;99.90;;;;;;5096325;28;20051;-64
2021/12/15 12:10:28;;;;;;;20.65;14.18;;;11.00;99.90;;;;;;5096165;28;20044;-63
2021/12/15 12:13:08;;;;;;;24.10;15.30;;;11.00;99.90;;;;;;5099317;28;20059;-64
2021/12/15 12:15:38;;;;;;;21.13;13.65;;;11.10;99.90;;;;;;5097271;28;20040;-64
2021/12/15 12:18:08;;;;;;;21.98;13.27;;;11.10;99.90;;;;;;5130188;27;20173;-64
2021/12/15 12:20:40;;;;;;;24.95;12.65;;;11.10;99.90;;;;;;5095345;28;20074;-64
2021/12/15 12:23:10;;;;;;;22.52;11.10;;;11.10;99.90;;;;;;5095483;28;20032;-64
2021/12/15 12:25:40;;;;;;;16.00;11.18;;;11.10;99.90;;;;;;5109194;27;20063;-64
2021/12/15 12:28:09;;;;;;;15.52;9.98;;;11.10;99.90;;;;;;5130850;27;20044;-64
2021/12/15 12:30:42;;;;;;;17.85;10.30;;;11.10;99.90;;;;;;5096709;28;20067;-64
2021/12/15 12:33:10;;;;;;;27.08;11.20;;;11.10;99.90;;;;;;5101359;27;20065;-64
2021/12/15 12:35:44;;;;;;;17.58;10.30;;;11.20;99.90;;;;;;5095555;28;20036;-64
2021/12/15 12:38:23;;;;;;;17.33;10.13;;;11.10;99.90;;;;;;5097220;28;20048;-64
2021/12/15 12:40:56;;;;;;;16.00;9.48;;;11.20;99.90;;;;;;5096442;28;20097;-64
2021/12/15 12:43:28;;;;;;;15.20;9.52;;;11.20;99.90;;;;;;5096092;28;20450;-64
2021/12/15 12:46:22;;;;;;;17.30;11.05;;;11.30;99.90;;;;;;5094809;28;20452;-64
2021/12/15 12:49:39;;;;;;;19.90;10.43;;;11.30;99.90;;;;;;5095873;28;20498;-64
2021/12/15 13:00:32;;;;;;;19.52;9.23;;;11.30;99.90;;;;;;5097280;27;20056;-64
2021/12/15 13:03:07;;;;;;;13.60;6.85;;;11.30;99.90;;;;;;5112123;27;20157;-64
2021/12/15 13:05:33;;;;;;;11.63;5.05;;;10.90;99.90;;;;;;5089687;28;20052;-64
2021/12/15 13:08:05;;;;;;;11.40;5.45;;;11.30;99.90;;;;;;5099655;28;20447;-64
2021/12/15 13:10:52;;;;;;;14.23;5.53;;;11.30;99.90;;;;;;5102081;28;20504;-64
2021/12/15 13:13:21;;;;;;;14.60;4.88;;;11.30;99.90;;;;;;5097832;28;20556;-63
2021/12/15 13:16:09;;;;;;;10.93;4.50;;;11.20;99.90;;;;;;5099900;28;20043;-64
2021/12/15 13:18:50;;;;;;;9.63;4.20;;;11.10;99.90;;;;;;5099059;28;20115;-64
2021/12/15 13:21:21;;;;;;;12.73;4.45;;;11.20;99.90;;;;;;5094938;28;20040;-64
2021/12/15 13:23:52;;;;;;;11.75;3.78;;;11.20;99.90;;;;;;5094371;27;20046;-64
2021/12/15 13:29:36;;;;;;;12.80;4.03;;;11.20;99.90;;;;;;5095777;28;20040;-64
2021/12/15 13:32:03;;;;;;;10.18;4.57;;;11.20;99.90;;;;;;5096209;28;20031;-63
2021/12/15 13:34:36;;;;;;;9.50;4.18;;;11.20;99.90;;;;;;5096386;28;20121;-64
2021/12/15 13:37:02;;;;;;;9.13;4.03;;;11.20;99.90;;;;;;5129316;27;20039;-64
2021/12/15 13:39:43;;;;;;;20.10;5.85;;;11.30;99.90;;;;;;5128499;27;20171;-64
2021/12/15 13:42:14;;;;;;;13.00;4.53;;;11.30;99.90;;;;;;5095754;28;20074;-64
2021/12/15 13:44:42;;;;;;;10.98;4.97;;;11.30;99.90;;;;;;5099594;28;20051;-64
2021/12/15 13:47:07;;;;;;;11.48;5.68;;;11.30;99.90;;;;;;5094643;28;20371;-64
2021/12/15 13:49:46;;;;;;;14.05;5.20;;;11.30;99.90;;;;;;5094229;28;20057;-64
2021/12/15 13:52:42;;;;;;;10.55;4.45;;;11.30;99.90;;;;;;5126392;27;20055;-64
2021/12/15 13:55:14;;;;;;;14.27;5.18;;;11.30;99.90;;;;;;5093914;27;20682;-64
2021/12/15 13:57:46;;;;;;;13.70;5.20;;;11.20;99.90;;;;;;5127305;27;20040;-64
2021/12/15 14:00:24;;;;;;;15.30;4.93;;;11.20;99.90;;;;;;5097466;27;20124;-64
2021/12/15 14:03:28;;;;;;;14.40;5.32;;;11.20;99.90;;;;;;5093672;28;20397;-64
2021/12/15 14:06:09;;;;;;;12.13;4.82;;;11.10;99.90;;;;;;5093071;28;20032;-64
2021/12/15 14:08:40;;;;;;;8.45;3.60;;;11.10;99.90;;;;;;5094092;28;20085;-64
2021/12/15 14:11:21;;;;;;;12.07;3.40;;;11.10;99.90;;;;;;5109869;27;20543;-64